Time;durP1;ratioP1;P1;durP2;ratioP2;P2;SDS_P1;SDS_P2;PMS_P1;PMS_P2;Temp;Humidity;BMP_temperature;BMP_pressure;BME280_temperature;BME280_humidity;BME280_pressure;Samples;Min_cycle;Max_cycle;Signal;HPM_P1;HPM_P2
2022/11/23 00:01:25;;;;;;;9.90;6.22;;;7.90;99.90;;;;;;5107220;27;20070;-68
2022/11/23 00:03:53;;;;;;;9.47;5.60;;;7.90;99.90;;;;;;5108345;27;20085;-69
2022/11/23 00:06:20;;;;;;;11.15;5.57;;;7.90;99.90;;;;;;5108007;27;20301;-69
2022/11/23 00:08:47;;;;;;;12.05;6.25;;;7.90;99.90;;;;;;5110519;27;20035;-69
2022/11/23 00:11:13;;;;;;;8.20;5.20;;;7.90;99.90;;;;;;5112745;27;20041;-69
2022/11/23 00:13:40;;;;;;;8.82;5.40;;;7.90;99.90;;;;;;5108318;27;20032;-68
2022/11/23 00:16:15;;;;;;;10.90;5.50;;;7.90;99.90;;;;;;5093044;27;20085;-69
2022/11/23 00:18:41;;;;;;;7.97;5.00;;;7.90;99.90;;;;;;5112709;27;20034;-69
2022/11/23 00:21:15;;;;;;;10.35;5.57;;;7.90;99.90;;;;;;5112590;27;20484;-68
2022/11/23 00:23:41;;;;;;;7.50;5.30;;;7.90;99.90;;;;;;5107744;27;20122;-69
2022/11/23 00:26:07;;;;;;;8.80;5.13;;;7.90;99.90;;;;;;5109694;27;20044;-68
2022/11/23 00:28:38;;;;;;;8.95;5.05;;;7.90;99.90;;;;;;5109586;27;20031;-69
2022/11/23 00:31:05;;;;;;;10.40;5.80;;;7.90;99.90;;;;;;5109945;27;20126;-68
2022/11/23 00:33:31;;;;;;;10.27;5.53;;;7.90;99.90;;;;;;5102946;27;20058;-68
2022/11/23 00:36:10;;;;;;;8.95;5.47;;;7.90;99.90;;;;;;5104651;27;20485;-68
2022/11/23 00:38:36;;;;;;;10.60;5.20;;;8.00;99.90;;;;;;5106155;27;20035;-69
2022/11/23 00:41:11;;;;;;;11.38;5.72;;;7.90;99.90;;;;;;5106027;27;20035;-68
2022/11/23 00:43:37;;;;;;;12.35;6.35;;;8.00;99.90;;;;;;5109442;27;20053;-69
2022/11/23 00:46:16;;;;;;;9.07;5.32;;;8.00;99.90;;;;;;5104335;27;20035;-68
2022/11/23 00:48:43;;;;;;;10.57;5.53;;;8.00;99.90;;;;;;5107793;27;20050;-68
2022/11/23 00:51:11;;;;;;;8.95;5.25;;;8.00;99.90;;;;;;5110961;27;20046;-68
2022/11/23 00:53:37;;;;;;;10.88;6.25;;;8.00;99.90;;;;;;5110058;27;20070;-69
2022/11/23 00:56:03;;;;;;;10.40;6.10;;;8.00;99.90;;;;;;5111663;27;20096;-68
2022/11/23 00:58:29;;;;;;;7.85;5.50;;;8.00;99.90;;;;;;5091050;27;20046;-69
2022/11/23 01:01:13;;;;;;;8.88;5.30;;;8.00;99.90;;;;;;5127166;27;20039;-68
2022/11/23 01:03:42;;;;;;;9.65;6.00;;;8.00;99.90;;;;;;5107959;27;20055;-67
2022/11/23 01:06:10;;;;;;;9.65;5.72;;;8.00;99.90;;;;;;5112032;27;20043;-69
2022/11/23 01:08:36;;;;;;;10.70;5.22;;;8.00;99.90;;;;;;5108701;27;20066;-68
2022/11/23 01:11:05;;;;;;;8.05;5.55;;;8.00;99.90;;;;;;5110411;27;20027;-69
2022/11/23 01:13:31;;;;;;;12.55;6.43;;;8.00;99.90;;;;;;5093961;27;20428;-69
2022/11/23 01:15:57;;;;;;;8.32;5.47;;;8.00;99.90;;;;;;5109150;27;20046;-68
2022/11/23 01:18:23;;;;;;;7.78;5.50;;;8.00;99.90;;;;;;5108985;27;20039;-68
2022/11/23 01:20:49;;;;;;;9.32;5.60;;;8.10;99.90;;;;;;5109893;27;20481;-68
2022/11/23 01:23:15;;;;;;;7.40;5.45;;;8.10;99.90;;;;;;5130120;27;20046;-68
2022/11/23 01:25:41;;;;;;;9.00;5.40;;;8.10;99.90;;;;;;5091899;27;20103;-68
2022/11/23 01:28:06;;;;;;;11.57;5.85;;;8.10;99.90;;;;;;5109301;27;20047;-69
2022/11/23 01:30:33;;;;;;;8.43;5.88;;;8.10;99.90;;;;;;5109507;27;20524;-68
2022/11/23 01:32:59;;;;;;;12.35;6.50;;;8.10;99.90;;;;;;5089335;27;20089;-68
2022/11/23 01:35:25;;;;;;;8.98;6.00;;;8.10;99.90;;;;;;5106034;27;20038;-68
2022/11/23 01:37:50;;;;;;;10.00;5.80;;;8.10;99.90;;;;;;5101404;27;20485;-68
2022/11/23 01:40:16;;;;;;;9.93;6.00;;;8.10;99.90;;;;;;5092145;27;20138;-68
2022/11/23 01:42:54;;;;;;;9.23;6.15;;;8.10;99.90;;;;;;5108621;27;20481;-67
2022/11/23 01:45:37;;;;;;;9.90;6.53;;;8.10;99.90;;;;;;5107146;27;20054;-68
2022/11/23 01:48:07;;;;;;;9.45;5.72;;;8.10;99.90;;;;;;5109216;27;20447;-69
2022/11/23 01:50:33;;;;;;;8.90;6.00;;;8.10;99.90;;;;;;5111079;27;20385;-68
2022/11/23 01:52:59;;;;;;;10.80;7.05;;;8.10;99.90;;;;;;5124091;27;20031;-69
2022/11/23 01:55:25;;;;;;;9.57;6.25;;;8.10;99.90;;;;;;5107347;27;20039;-68
2022/11/23 01:57:52;;;;;;;9.30;6.20;;;8.10;99.90;;;;;;5107520;27;20042;-69
2022/11/23 02:00:18;;;;;;;8.50;6.00;;;8.10;99.90;;;;;;5110048;27;20061;-68
2022/11/23 02:02:56;;;;;;;10.05;6.70;;;8.10;99.90;;;;;;5106458;27;20059;-69
2022/11/23 02:05:27;;;;;;;9.98;6.80;;;8.10;99.90;;;;;;5107258;27;20505;-68
2022/11/23 02:07:53;;;;;;;11.40;6.65;;;8.10;99.90;;;;;;5106586;27;20051;-69
2022/11/23 02:10:21;;;;;;;10.10;6.53;;;8.10;99.90;;;;;;5109358;27;20481;-69
2022/11/23 02:12:47;;;;;;;9.90;6.80;;;8.10;99.90;;;;;;5106228;27;20083;-68
2022/11/23 02:15:13;;;;;;;10.52;6.82;;;8.10;99.90;;;;;;5107597;27;20126;-68
2022/11/23 02:17:38;;;;;;;7.35;6.35;;;8.10;99.90;;;;;;5110085;27;21629;-68
2022/11/23 02:20:10;;;;;;;14.23;8.52;;;8.10;99.90;;;;;;5105843;27;20080;-69
2022/11/23 02:22:59;;;;;;;10.20;6.75;;;8.10;99.90;;;;;;5088124;27;20046;-68
2022/11/23 02:25:44;;;;;;;10.52;7.05;;;8.10;99.90;;;;;;5108751;27;20047;-68
2022/11/23 02:28:20;;;;;;;11.63;7.80;;;8.10;99.90;;;;;;5104804;28;20039;-69
2022/11/23 02:30:49;;;;;;;10.88;7.70;;;8.10;99.90;;;;;;5109064;28;20397;-68
2022/11/23 02:33:14;;;;;;;14.05;8.60;;;8.10;99.90;;;;;;5103557;27;20027;-69
2022/11/23 02:35:51;;;;;;;14.73;8.15;;;8.10;99.90;;;;;;5105122;28;20455;-69
2022/11/23 02:38:18;;;;;;;12.52;8.43;;;8.10;99.90;;;;;;5104571;27;20162;-68
2022/11/23 02:40:44;;;;;;;14.85;9.88;;;8.10;99.90;;;;;;5105368;28;20047;-69
2022/11/23 02:43:09;;;;;;;14.63;10.32;;;8.10;99.90;;;;;;5107869;28;20092;-68
2022/11/23 02:45:49;;;;;;;13.60;10.18;;;8.10;99.90;;;;;;5106751;28;20039;-68
2022/11/23 02:48:15;;;;;;;15.70;9.48;;;8.10;99.90;;;;;;5103211;28;20039;-69
2022/11/23 02:50:41;;;;;;;14.82;10.18;;;8.10;99.90;;;;;;5105251;28;20035;-68
2022/11/23 02:53:08;;;;;;;16.00;10.05;;;8.10;99.90;;;;;;5109472;28;20035;-68
2022/11/23 02:55:33;;;;;;;16.90;11.27;;;8.10;99.90;;;;;;5106541;28;20731;-68
2022/11/23 02:57:59;;;;;;;17.75;12.20;;;8.10;99.90;;;;;;5109946;28;20039;-69
2022/11/23 03:00:25;;;;;;;20.60;11.85;;;8.10;99.90;;;;;;5110434;28;20043;-68
2022/11/23 03:02:50;;;;;;;20.60;12.18;;;8.10;99.90;;;;;;5107047;28;20066;-68
2022/11/23 03:05:16;;;;;;;18.33;12.43;;;8.10;99.90;;;;;;5107239;28;20058;-69
2022/11/23 03:07:42;;;;;;;20.83;12.30;;;8.10;99.90;;;;;;5107185;28;20497;-69
2022/11/23 03:10:08;;;;;;;20.70;12.82;;;8.20;99.90;;;;;;5093252;28;20051;-69
2022/11/23 03:12:33;;;;;;;18.85;12.27;;;8.10;99.90;;;;;;5092958;27;20047;-68
2022/11/23 03:14:59;;;;;;;16.13;12.48;;;8.10;99.90;;;;;;5114477;27;20134;-68
2022/11/23 03:17:26;;;;;;;20.10;13.77;;;8.20;99.90;;;;;;5114763;27;20090;-69
2022/11/23 03:19:52;;;;;;;19.30;12.77;;;8.10;99.90;;;;;;5113274;27;20379;-69
2022/11/23 03:22:17;;;;;;;22.73;13.68;;;8.20;99.90;;;;;;5112360;27;20042;-68
2022/11/23 03:24:43;;;;;;;21.65;13.68;;;8.20;99.90;;;;;;5113125;27;20042;-69
2022/11/23 03:27:08;;;;;;;21.02;13.60;;;8.20;99.90;;;;;;5111340;27;20548;-68
2022/11/23 03:29:34;;;;;;;22.05;14.05;;;8.20;99.90;;;;;;5113773;27;20390;-69
2022/11/23 03:32:00;;;;;;;22.42;14.13;;;8.20;99.90;;;;;;5113390;27;20039;-68
2022/11/23 03:34:25;;;;;;;21.17;13.90;;;8.20;99.90;;;;;;5107636;27;20047;-68
2022/11/23 03:36:51;;;;;;;20.00;13.07;;;8.20;99.90;;;;;;5113558;27;20518;-68
2022/11/23 03:39:16;;;;;;;21.17;13.75;;;8.20;99.90;;;;;;5113585;27;20043;-68
2022/11/23 03:41:42;;;;;;;19.65;13.38;;;8.20;99.90;;;;;;5112259;27;20058;-68
2022/11/23 03:44:08;;;;;;;22.77;14.23;;;8.20;99.90;;;;;;5110393;27;20168;-69
2022/11/23 03:46:33;;;;;;;22.95;14.45;;;8.20;99.90;;;;;;5111784;27;20044;-69
2022/11/23 03:48:59;;;;;;;22.05;14.68;;;8.20;99.90;;;;;;5109610;27;20031;-69
2022/11/23 03:51:24;;;;;;;22.05;13.77;;;8.20;99.90;;;;;;5112043;27;20035;-68
2022/11/23 03:53:50;;;;;;;22.50;15.05;;;8.20;99.90;;;;;;5107181;27;20084;-68
2022/11/23 03:56:16;;;;;;;27.35;15.25;;;8.20;99.90;;;;;;5109899;27;20046;-69
2022/11/23 03:58:41;;;;;;;20.90;14.70;;;8.20;99.90;;;;;;5112681;27;20050;-69
2022/11/23 04:01:07;;;;;;;21.80;14.73;;;8.10;99.90;;;;;;5107942;27;21473;-68
2022/11/23 04:03:33;;;;;;;22.52;16.00;;;8.10;99.90;;;;;;5108532;27;20047;-69
2022/11/23 04:05:59;;;;;;;20.88;15.07;;;8.20;99.90;;;;;;5108891;27;20051;-68
2022/11/23 04:08:25;;;;;;;18.30;14.63;;;8.20;99.90;;;;;;5105595;27;20049;-68
2022/11/23 04:10:50;;;;;;;22.25;14.63;;;8.20;99.90;;;;;;5090625;27;20111;-68
2022/11/23 04:13:16;;;;;;;20.33;14.75;;;8.10;99.90;;;;;;5103561;27;20038;-69
2022/11/23 04:15:42;;;;;;;20.58;15.02;;;8.10;99.90;;;;;;5105005;27;20023;-68
2022/11/23 04:18:07;;;;;;;22.98;15.27;;;8.10;99.90;;;;;;5102400;27;20439;-68
2022/11/23 04:20:33;;;;;;;21.33;14.90;;;8.10;99.90;;;;;;5109558;27;20040;-69
2022/11/23 04:22:59;;;;;;;27.05;15.52;;;8.10;99.90;;;;;;5094884;27;20055;-68
2022/11/23 04:25:24;;;;;;;24.15;16.63;;;8.10;99.90;;;;;;5106700;27;20529;-68
2022/11/23 04:27:50;;;;;;;22.13;15.60;;;8.10;99.90;;;;;;5131475;27;20027;-68
2022/11/23 04:30:15;;;;;;;22.38;15.70;;;8.10;99.90;;;;;;5111794;27;20038;-68
2022/11/23 04:32:44;;;;;;;22.13;14.60;;;8.10;99.90;;;;;;5110962;27;20084;-68
2022/11/23 04:35:09;;;;;;;28.52;16.15;;;8.10;99.90;;;;;;5103461;27;20059;-69
2022/11/23 04:37:35;;;;;;;27.70;16.38;;;8.10;99.90;;;;;;5108255;27;20039;-68
2022/11/23 04:40:00;;;;;;;22.10;15.50;;;8.10;99.90;;;;;;5096583;27;20043;-69
2022/11/23 04:42:26;;;;;;;24.77;14.75;;;8.10;99.90;;;;;;5110254;27;20126;-69
2022/11/23 04:44:52;;;;;;;22.77;15.48;;;8.10;99.90;;;;;;5103289;27;20116;-68
2022/11/23 04:47:17;;;;;;;22.50;15.15;;;8.10;99.90;;;;;;5110424;27;20409;-67
2022/11/23 04:49:43;;;;;;;21.45;14.88;;;8.10;99.90;;;;;;5094465;27;20075;-69
2022/11/23 04:52:08;;;;;;;21.73;15.70;;;8.10;99.90;;;;;;5109539;27;20027;-68
2022/11/23 04:54:34;;;;;;;25.80;14.63;;;8.10;99.90;;;;;;5111013;27;20405;-68
2022/11/23 04:57:00;;;;;;;21.70;14.85;;;8.10;99.90;;;;;;5106404;27;20050;-68
2022/11/23 04:59:26;;;;;;;24.80;14.38;;;8.10;99.90;;;;;;5110187;27;20044;-69
2022/11/23 05:01:51;;;;;;;25.20;15.25;;;8.10;99.90;;;;;;5105927;27;20469;-68
2022/11/23 05:04:18;;;;;;;19.20;13.70;;;8.10;99.90;;;;;;5110745;27;20122;-68
2022/11/23 05:06:44;;;;;;;18.55;12.63;;;8.10;99.90;;;;;;5109103;27;20039;-68
2022/11/23 05:09:11;;;;;;;22.50;12.48;;;8.10;99.90;;;;;;5106890;27;20092;-69
2022/11/23 05:11:36;;;;;;;22.83;13.40;;;8.10;99.90;;;;;;5107062;27;20067;-68
2022/11/23 05:14:02;;;;;;;20.90;13.38;;;8.10;99.90;;;;;;5111469;27;20071;-69
2022/11/23 05:16:28;;;;;;;20.90;13.32;;;8.10;99.90;;;;;;5111011;27;20037;-69
2022/11/23 05:18:53;;;;;;;19.75;12.25;;;8.10;99.90;;;;;;5109606;27;20058;-68
2022/11/23 05:21:20;;;;;;;19.33;13.10;;;8.10;99.90;;;;;;5111150;27;20114;-68
2022/11/23 05:23:46;;;;;;;23.08;12.38;;;8.10;99.90;;;;;;5111052;27;20068;-69
2022/11/23 05:26:11;;;;;;;17.98;11.55;;;8.10;99.90;;;;;;5110743;27;20039;-69
2022/11/23 05:28:37;;;;;;;18.02;11.38;;;8.10;99.90;;;;;;5112103;27;20131;-68
2022/11/23 05:31:03;;;;;;;17.13;10.63;;;8.10;99.90;;;;;;5111075;27;20465;-68
2022/11/23 05:33:29;;;;;;;15.20;10.43;;;8.10;99.90;;;;;;5089310;27;20427;-68
2022/11/23 05:35:55;;;;;;;17.90;10.75;;;8.00;99.90;;;;;;5103314;27;20080;-68
2022/11/23 05:38:20;;;;;;;17.00;10.00;;;8.10;99.90;;;;;;5110027;27;20420;-69
2022/11/23 05:40:46;;;;;;;17.02;10.32;;;8.00;99.90;;;;;;5093798;27;20051;-68
2022/11/23 05:43:11;;;;;;;15.10;9.57;;;8.00;99.90;;;;;;5104814;27;20045;-69
2022/11/23 05:45:37;;;;;;;15.00;9.52;;;8.00;99.90;;;;;;5109794;27;20042;-68
2022/11/23 05:48:03;;;;;;;16.77;9.93;;;8.00;99.90;;;;;;5087777;27;20130;-69
2022/11/23 05:50:30;;;;;;;19.60;9.65;;;8.00;99.90;;;;;;5104350;27;20078;-68
2022/11/23 05:52:59;;;;;;;17.83;9.80;;;7.90;99.90;;;;;;5107931;27;20087;-68
2022/11/23 05:55:25;;;;;;;16.35;8.70;;;7.90;99.90;;;;;;5108943;27;20474;-69
2022/11/23 05:57:52;;;;;;;16.55;9.30;;;7.90;99.90;;;;;;5110503;27;20520;-68
2022/11/23 06:00:17;;;;;;;12.90;8.38;;;7.90;99.90;;;;;;5105046;27;20374;-68
2022/11/23 06:02:43;;;;;;;16.15;8.40;;;7.90;99.90;;;;;;5105981;27;20055;-68
2022/11/23 06:05:09;;;;;;;14.60;8.35;;;7.90;99.90;;;;;;5089669;27;20039;-68
2022/11/23 06:07:35;;;;;;;12.45;8.10;;;7.90;99.90;;;;;;5109024;27;20440;-68
2022/11/23 06:10:01;;;;;;;13.52;7.95;;;7.90;99.90;;;;;;5108515;27;20111;-68
2022/11/23 06:12:27;;;;;;;14.57;8.13;;;7.90;99.90;;;;;;5111948;27;20486;-68
2022/11/23 06:14:53;;;;;;;14.25;8.05;;;7.90;99.90;;;;;;5103270;27;20035;-68
2022/11/23 06:17:19;;;;;;;13.07;8.02;;;7.90;99.90;;;;;;5107474;27;20073;-70
2022/11/23 06:19:45;;;;;;;12.50;7.38;;;7.90;99.90;;;;;;5108629;27;20047;-68
2022/11/23 06:22:11;;;;;;;14.07;7.18;;;7.90;99.90;;;;;;5109189;27;20074;-68
2022/11/23 06:24:36;;;;;;;12.15;6.97;;;7.80;99.90;;;;;;5108479;27;20046;-68
2022/11/23 06:27:02;;;;;;;9.68;6.25;;;7.80;99.90;;;;;;5109825;27;20039;-68
2022/11/23 06:29:28;;;;;;;11.13;6.78;;;7.70;99.90;;;;;;5108803;27;20461;-68
2022/11/23 06:31:53;;;;;;;12.10;6.72;;;7.80;99.90;;;;;;5110546;27;20478;-68
2022/11/23 06:34:19;;;;;;;9.18;6.28;;;7.70;99.90;;;;;;5092840;28;20485;-67
2022/11/23 06:36:45;;;;;;;11.73;6.40;;;7.70;99.90;;;;;;5110752;27;20060;-68
2022/11/23 06:39:10;;;;;;;13.63;6.10;;;7.70;99.90;;;;;;5110212;28;20091;-67
2022/11/23 06:41:36;;;;;;;11.10;5.80;;;7.70;99.90;;;;;;5109584;28;20054;-67
2022/11/23 06:44:02;;;;;;;9.40;5.38;;;7.70;99.90;;;;;;5109597;28;20058;-68
2022/11/23 06:46:28;;;;;;;12.85;5.78;;;7.70;99.90;;;;;;5107523;28;20072;-68
2022/11/23 06:48:53;;;;;;;9.38;5.22;;;7.70;99.90;;;;;;5109200;28;20035;-67
2022/11/23 06:51:19;;;;;;;13.05;5.32;;;7.70;99.90;;;;;;5091572;28;20074;-68
2022/11/23 06:53:45;;;;;;;13.45;5.55;;;7.70;99.90;;;;;;5090658;28;20042;-69
2022/11/23 06:56:10;;;;;;;14.93;5.18;;;7.70;99.90;;;;;;5108348;28;20059;-68
2022/11/23 06:58:36;;;;;;;10.35;5.03;;;7.60;99.90;;;;;;5109476;27;20047;-68
2022/11/23 07:01:04;;;;;;;11.00;4.80;;;7.70;99.90;;;;;;5108758;28;20053;-68
2022/11/23 07:03:30;;;;;;;13.55;5.53;;;7.60;99.90;;;;;;5108291;28;20058;-67
2022/11/23 07:05:56;;;;;;;13.63;5.47;;;7.70;99.90;;;;;;5092514;28;20448;-68
2022/11/23 07:08:22;;;;;;;15.65;5.07;;;7.70;99.90;;;;;;5109611;28;20043;-68
2022/11/23 07:10:48;;;;;;;9.50;4.78;;;7.70;99.90;;;;;;5109380;28;20456;-67
2022/11/23 07:13:13;;;;;;;9.60;4.68;;;7.70;99.90;;;;;;5110529;28;20070;-67
2022/11/23 07:15:40;;;;;;;15.50;4.95;;;7.70;99.90;;;;;;5105129;28;20051;-68
2022/11/23 07:18:06;;;;;;;12.77;5.20;;;7.70;99.90;;;;;;5109981;28;20039;-68
2022/11/23 07:20:32;;;;;;;7.85;4.80;;;7.70;99.90;;;;;;5108426;28;20378;-68
2022/11/23 07:23:06;;;;;;;11.90;4.90;;;7.80;99.90;;;;;;5111449;28;20122;-67
2022/11/23 07:25:34;;;;;;;15.95;4.72;;;7.70;99.90;;;;;;5108433;28;20113;-67
2022/11/23 07:28:00;;;;;;;14.70;4.60;;;7.70;99.90;;;;;;5107048;28;20044;-67
2022/11/23 07:30:27;;;;;;;14.90;4.55;;;7.70;99.90;;;;;;5109396;28;20051;-68
2022/11/23 07:32:53;;;;;;;12.60;4.90;;;7.80;99.90;;;;;;5107331;28;20039;-67
2022/11/23 07:35:19;;;;;;;10.05;4.32;;;7.80;99.90;;;;;;5111218;28;20028;-69
2022/11/23 07:37:45;;;;;;;10.95;4.03;;;7.80;99.90;;;;;;5110142;28;20171;-69
2022/11/23 07:40:11;;;;;;;11.15;4.38;;;7.80;99.90;;;;;;5107719;28;20565;-67
2022/11/23 07:42:37;;;;;;;14.43;4.40;;;7.80;99.90;;;;;;5109064;28;20039;-67
2022/11/23 07:45:07;;;;;;;10.82;3.90;;;7.80;99.90;;;;;;5109598;28;20031;-67
2022/11/23 07:47:32;;;;;;;15.98;4.22;;;7.80;99.90;;;;;;5110753;28;20039;-68
2022/11/23 07:49:58;;;;;;;9.80;3.90;;;7.80;99.90;;;;;;5111150;28;20488;-67
2022/11/23 07:52:24;;;;;;;9.95;3.88;;;7.80;99.90;;;;;;5106012;28;20045;-67
2022/11/23 07:54:49;;;;;;;13.23;3.90;;;7.80;99.90;;;;;;5110831;28;20039;-68
2022/11/23 07:57:15;;;;;;;16.55;4.85;;;7.80;99.90;;;;;;5111336;27;20035;-67
2022/11/23 07:59:41;;;;;;;11.82;4.10;;;7.80;99.90;;;;;;5133077;27;20459;-67
2022/11/23 08:02:11;;;;;;;12.30;4.03;;;7.90;99.90;;;;;;5114208;27;20089;-68
2022/11/23 08:04:36;;;;;;;14.55;4.63;;;7.90;99.90;;;;;;5112772;27;20503;-68
2022/11/23 08:07:02;;;;;;;13.32;3.72;;;7.90;99.90;;;;;;5114413;27;20126;-67
2022/11/23 08:09:28;;;;;;;16.15;4.07;;;7.90;99.90;;;;;;5113845;27;20035;-68
2022/11/23 08:11:54;;;;;;;16.80;4.22;;;7.90;99.90;;;;;;5114599;27;20073;-68
2022/11/23 08:14:19;;;;;;;12.20;3.70;;;7.90;99.90;;;;;;5114119;27;20079;-67
2022/11/23 08:16:51;;;;;;;12.63;3.95;;;8.00;99.90;;;;;;5114540;27;20405;-67
2022/11/23 08:19:17;;;;;;;12.57;3.55;;;8.00;99.90;;;;;;5114042;27;20086;-68
2022/11/23 08:21:44;;;;;;;8.98;3.75;;;8.00;99.90;;;;;;5114359;27;20462;-68
2022/11/23 08:24:10;;;;;;;11.73;3.70;;;8.00;99.90;;;;;;5114225;27;20103;-68
2022/11/23 08:26:36;;;;;;;9.43;3.58;;;8.00;99.90;;;;;;5114306;27;20039;-67
2022/11/23 08:29:02;;;;;;;11.95;3.90;;;8.10;99.90;;;;;;5114159;27;20041;-68
2022/11/23 08:31:27;;;;;;;10.85;3.60;;;8.10;99.90;;;;;;5114036;27;20043;-68
2022/11/23 08:33:53;;;;;;;8.93;3.75;;;8.10;99.90;;;;;;5113943;27;20155;-67
2022/11/23 08:36:19;;;;;;;12.27;3.72;;;8.20;99.90;;;;;;5114202;27;20038;-68
2022/11/23 08:38:45;;;;;;;10.82;3.72;;;8.20;99.90;;;;;;5114304;27;20050;-67
2022/11/23 08:41:11;;;;;;;12.80;4.10;;;8.20;99.90;;;;;;5114406;27;20443;-67
2022/11/23 08:43:37;;;;;;;12.35;4.00;;;8.20;99.90;;;;;;5113851;27;20043;-68
2022/11/23 08:46:03;;;;;;;12.63;3.75;;;8.20;99.90;;;;;;5113957;27;20371;-68
2022/11/23 08:48:29;;;;;;;12.48;3.60;;;8.20;99.90;;;;;;5113862;27;20103;-67
2022/11/23 08:50:59;;;;;;;11.90;3.42;;;8.20;99.90;;;;;;5113954;27;20027;-67
2022/11/23 08:53:25;;;;;;;14.20;3.97;;;8.20;99.90;;;;;;5113379;27;20373;-68
2022/11/23 08:55:51;;;;;;;13.63;3.67;;;8.20;99.90;;;;;;5095600;27;20035;-67
2022/11/23 08:58:16;;;;;;;11.52;3.70;;;8.20;99.90;;;;;;5113369;27;20062;-68
2022/11/23 09:00:42;;;;;;;14.45;4.95;;;8.30;99.90;;;;;;5104611;27;20039;-67
2022/11/23 09:03:08;;;;;;;12.27;4.68;;;8.30;99.90;;;;;;5112628;27;20054;-68
2022/11/23 09:05:38;;;;;;;14.25;3.63;;;8.30;99.90;;;;;;5112526;27;20404;-68
2022/11/23 09:08:04;;;;;;;12.50;3.53;;;8.40;99.90;;;;;;5096227;27;20476;-68
2022/11/23 09:10:29;;;;;;;10.63;3.75;;;8.40;99.90;;;;;;5112389;27;20374;-68
2022/11/23 09:12:55;;;;;;;11.68;3.72;;;8.40;99.90;;;;;;5096105;27;20099;-68
2022/11/23 09:15:21;;;;;;;16.08;3.35;;;8.50;99.90;;;;;;5111617;27;20100;-68
2022/11/23 09:17:46;;;;;;;14.88;3.85;;;8.50;99.90;;;;;;5111445;27;20062;-68
2022/11/23 09:20:12;;;;;;;12.80;3.42;;;8.50;99.90;;;;;;5095743;27;20055;-69
2022/11/23 09:22:38;;;;;;;13.73;3.22;;;8.50;99.90;;;;;;5095394;27;20396;-68
2022/11/23 09:25:05;;;;;;;12.52;3.13;;;8.60;99.90;;;;;;5111119;27;20038;-68
2022/11/23 09:27:31;;;;;;;15.00;3.22;;;8.60;99.90;;;;;;5108969;27;20123;-68
2022/11/23 09:29:57;;;;;;;13.90;3.33;;;8.60;99.90;;;;;;5112150;27;20130;-68
2022/11/23 09:32:22;;;;;;;13.27;3.38;;;8.60;99.90;;;;;;5112403;27;20039;-67
2022/11/23 09:34:48;;;;;;;12.02;2.90;;;8.60;99.90;;;;;;5112069;27;20039;-69
2022/11/23 09:37:14;;;;;;;11.60;2.88;;;8.60;99.90;;;;;;5129668;27;20035;-68
2022/11/23 09:39:39;;;;;;;11.07;2.90;;;8.70;99.90;;;;;;5094254;27;20473;-69
2022/11/23 09:42:34;;;;;;;15.13;3.00;;;8.70;99.90;;;;;;5109438;27;20080;-68
2022/11/23 09:45:28;;;;;;;14.93;2.92;;;8.70;99.90;;;;;;5111519;27;20061;-68
2022/11/23 09:48:02;;;;;;;9.27;2.55;;;8.70;99.90;;;;;;5091753;27;20104;-68
2022/11/23 09:50:47;;;;;;;13.23;2.88;;;8.70;99.90;;;;;;5094213;27;20039;-68
2022/11/23 09:53:32;;;;;;;11.75;3.00;;;8.70;99.90;;;;;;5109192;27;20052;-68
2022/11/23 09:55:57;;;;;;;13.65;3.03;;;8.70;99.90;;;;;;5108391;27;20034;-69
2022/11/23 09:58:31;;;;;;;18.17;3.85;;;8.80;99.90;;;;;;5113407;27;20035;-68
2022/11/23 10:01:01;;;;;;;10.10;2.53;;;8.70;99.90;;;;;;5113058;27;20054;-68
2022/11/23 10:03:31;;;;;;;14.93;3.05;;;8.70;99.90;;;;;;5112649;27;20511;-68
2022/11/23 10:06:15;;;;;;;16.00;3.47;;;8.70;99.90;;;;;;5096193;27;20095;-67
2022/11/23 10:08:54;;;;;;;11.65;2.70;;;8.70;99.90;;;;;;5113544;27;20112;-68
2022/11/23 10:11:39;;;;;;;9.80;2.20;;;8.70;99.90;;;;;;5113250;27;20035;-67
2022/11/23 10:14:29;;;;;;;12.02;2.97;;;8.70;99.90;;;;;;5112211;27;20027;-67
2022/11/23 10:17:20;;;;;;;13.40;2.75;;;8.70;99.90;;;;;;5113664;27;20091;-68
2022/11/23 10:20:09;;;;;;;14.18;2.70;;;8.80;99.90;;;;;;5113313;27;20113;-67
2022/11/23 10:22:56;;;;;;;11.98;2.63;;;8.80;99.90;;;;;;5096287;27;20045;-68
2022/11/23 10:25:23;;;;;;;11.15;2.20;;;8.80;99.90;;;;;;5113023;27;20093;-68
2022/11/23 10:27:53;;;;;;;10.95;3.17;;;8.90;99.90;;;;;;5096184;27;20082;-67
2022/11/23 10:30:19;;;;;;;12.13;2.40;;;8.90;99.90;;;;;;5112236;27;20507;-68
2022/11/23 10:32:55;;;;;;;16.25;2.88;;;8.90;99.90;;;;;;5113086;27;20138;-68
2022/11/23 10:35:29;;;;;;;15.93;2.42;;;9.00;99.90;;;;;;5112702;28;20043;-68
2022/11/23 10:38:18;;;;;;;14.20;3.40;;;9.00;99.90;;;;;;5112809;28;20088;-68
2022/11/23 10:41:02;;;;;;;14.20;2.58;;;9.00;99.90;;;;;;5113525;28;20039;-67
2022/11/23 10:43:49;;;;;;;13.45;3.65;;;9.10;99.90;;;;;;5112774;28;20042;-68
2022/11/23 10:46:30;;;;;;;18.30;2.90;;;9.10;99.90;;;;;;5111971;28;20043;-68
2022/11/23 10:49:20;;;;;;;11.18;2.45;;;9.20;99.90;;;;;;5112712;28;20043;-68
2022/11/23 10:51:52;;;;;;;14.80;2.78;;;9.30;99.90;;;;;;5113165;28;20035;-67
2022/11/23 10:54:26;;;;;;;17.77;2.90;;;9.40;99.90;;;;;;5112078;28;20046;-67
2022/11/23 10:56:53;;;;;;;15.07;3.33;;;9.60;99.90;;;;;;5112434;28;20114;-67
2022/11/23 10:59:36;;;;;;;13.15;2.78;;;9.80;99.90;;;;;;5094701;28;20051;-68
2022/11/23 11:02:08;;;;;;;13.05;3.10;;;10.00;99.90;;;;;;5112743;28;20054;-67
2022/11/23 11:04:34;;;;;;;11.35;2.45;;;10.10;99.90;;;;;;5095559;27;20108;-67
2022/11/23 11:07:18;;;;;;;12.07;2.30;;;10.20;99.90;;;;;;5112505;28;20490;-68
2022/11/23 11:09:55;;;;;;;13.38;2.40;;;10.30;99.90;;;;;;5095499;28;20047;-68
2022/11/23 11:12:21;;;;;;;9.65;2.45;;;10.30;99.90;;;;;;5112379;28;20035;-68
2022/11/23 11:15:01;;;;;;;15.90;2.83;;;10.40;99.90;;;;;;5112780;28;20035;-67
2022/11/23 11:17:32;;;;;;;11.45;2.58;;;10.40;99.90;;;;;;5112046;28;20576;-68
2022/11/23 11:19:59;;;;;;;8.98;2.10;;;11.00;99.90;;;;;;5095253;28;20035;-67
2022/11/23 11:22:36;;;;;;;10.88;2.00;;;12.30;99.90;;;;;;5112376;28;20517;-67
2022/11/23 11:25:06;;;;;;;11.57;2.45;;;12.60;99.90;;;;;;5111767;28;20118;-68
2022/11/23 11:27:32;;;;;;;11.68;2.75;;;12.10;99.90;;;;;;5104078;28;20122;-68
2022/11/23 11:30:19;;;;;;;12.88;2.45;;;11.70;99.90;;;;;;5112119;27;20092;-69
2022/11/23 11:32:51;;;;;;;13.35;2.30;;;12.00;99.90;;;;;;5113648;27;20431;-68
2022/11/23 11:35:27;;;;;;;12.77;2.50;;;12.90;99.90;;;;;;5116259;27;20039;-68
2022/11/23 11:37:59;;;;;;;11.00;2.13;;;12.50;99.90;;;;;;5112470;27;20389;-67
2022/11/23 11:40:48;;;;;;;14.32;2.10;;;12.20;99.90;;;;;;5110607;27;20053;-68
2022/11/23 11:43:27;;;;;;;10.48;2.38;;;12.20;99.90;;;;;;5115029;27;20114;-67
2022/11/23 11:45:59;;;;;;;10.23;2.33;;;12.50;99.90;;;;;;5113163;27;20035;-68
2022/11/23 11:48:34;;;;;;;13.30;4.57;;;12.90;99.90;;;;;;5113222;27;20119;-69
2022/11/23 11:51:27;;;;;;;10.48;2.00;;;15.20;99.90;;;;;;5115835;27;20051;-68
2022/11/23 11:54:11;;;;;;;9.18;1.92;;;15.10;99.90;;;;;;5013999;28;20041;-67
2022/11/23 11:56:44;;;;;;;11.77;2.45;;;14.40;99.90;;;;;;5014044;28;20195;-68
2022/11/23 11:59:23;;;;;;;10.90;2.10;;;14.30;99.90;;;;;;5012935;28;20095;-68
2022/11/23 12:01:49;;;;;;;10.27;1.90;;;13.60;99.90;;;;;;4997812;28;20037;-69
2022/11/23 12:04:43;;;;;;;9.73;2.10;;;13.10;99.90;;;;;;5013449;28;20045;-68
2022/11/23 12:07:19;;;;;;;8.88;1.92;;;13.10;99.90;;;;;;4984190;28;20069;-69
2022/11/23 12:09:50;;;;;;;9.20;2.45;;;12.60;99.90;;;;;;5012446;28;20044;-68
2022/11/23 12:12:19;;;;;;;12.68;2.67;;;13.00;99.90;;;;;;5012220;28;20077;-67
2022/11/23 12:14:48;;;;;;;9.95;2.00;;;13.90;99.90;;;;;;5012656;28;20048;-69
2022/11/23 12:17:34;;;;;;;9.82;1.80;;;14.10;99.90;;;;;;5013733;28;20523;-68
2022/11/23 12:20:37;;;;;;;9.18;2.05;;;15.60;99.90;;;;;;5013441;28;20053;-68
2022/11/23 12:23:43;;;;;;;9.90;1.65;;;15.80;99.90;;;;;;5013929;28;20546;-69
2022/11/23 12:26:25;;;;;;;8.02;1.95;;;14.70;99.90;;;;;;5013451;28;20055;-68
2022/11/23 12:29:18;;;;;;;7.35;2.20;;;14.40;99.90;;;;;;5013392;28;20042;-68
2022/11/23 12:31:52;;;;;;;9.45;1.88;;;14.70;99.90;;;;;;5097051;27;20078;-68
2022/11/23 12:34:41;;;;;;;7.40;1.42;;;14.80;99.90;;;;;;5097810;27;20516;-69
2022/11/23 12:37:24;;;;;;;7.28;1.83;;;14.90;99.90;;;;;;5114951;27;20469;-68
2022/11/23 12:40:00;;;;;;;9.32;1.70;;;14.50;99.90;;;;;;5097368;27;20043;-70
2022/11/23 12:42:40;;;;;;;9.57;1.70;;;14.20;99.90;;;;;;5114535;27;20051;-68
2022/11/23 12:45:25;;;;;;;9.20;1.90;;;13.80;99.90;;;;;;5095833;27;20410;-70
2022/11/23 12:48:06;;;;;;;8.18;1.45;;;13.50;99.90;;;;;;5113314;27;20432;-68
2022/11/23 12:50:44;;;;;;;8.70;1.60;;;13.60;99.90;;;;;;5097091;27;20043;-68
2022/11/23 12:53:28;;;;;;;7.80;1.77;;;13.60;99.90;;;;;;5114135;27;20525;-69
2022/11/23 12:56:21;;;;;;;7.63;1.58;;;13.10;99.90;;;;;;5114503;27;20551;-68
2022/11/23 12:58:48;;;;;;;9.05;1.88;;;13.00;99.90;;;;;;5114172;27;20402;-69